sensor_id;sensor_type;location;lat;lon;timestamp;temperature;humidity
77700;DHT22;66867;42.658;23.320;2023-04-24T00:00:00;13.6;63
77700;DHT22;66867;42.658;23.320;2023-04-24T00:01:00;13.6;63
77700;DHT22;66867;42.658;23.320;2023-04-24T00:02:00;13.5;63
77700;DHT22;66867;42.658;23.320;2023-04-24T00:03:00;13.5;64
77700;DHT22;66867;42.658;23.320;2023-04-24T00:04:00;13.5;64
77700;DHT22;66867;42.658;23.320;2023-04-24T00:05:00;13.5;64
77700;DHT22;66867;42.658;23.320;2023-04-24T00:06:00;13.5;64
77700;DHT22;66867;42.658;23.320;2023-04-24T00:07:00;13.5;64
77700;DHT22;66867;42.658;23.320;2023-04-24T00:08:00;13.6;64
77700;DHT22;66867;42.658;23.320;2023-04-24T00:09:00;13.6;65
77700;DHT22;66867;42.658;23.320;2023-04-24T00:10:00;13.6;65
77700;DHT22;66867;42.658;23.320;2023-04-24T00:11:00;13.5;65
77700;DHT22;66867;42.658;23.320;2023-04-24T00:12:00;13.5;64
77700;DHT22;66867;42.658;23.320;2023-04-24T00:13:00;13.5;64
77700;DHT22;66867;42.658;23.320;2023-04-24T00:14:00;13.5;64
77700;DHT22;66867;42.658;23.320;2023-04-24T00:15:00;13.5;64
77700;DHT22;66867;42.658;23.320;2023-04-24T00:16:00;13.5;64
77700;DHT22;66867;42.658;23.320;2023-04-24T00:17:00;13.5;64
77700;DHT22;66867;42.658;23.320;2023-04-24T00:18:00;13.5;65
77700;DHT22;66867;42.658;23.320;2023-04-24T00:19:00;13.5;65
77700;DHT22;66867;42.658;23.320;2023-04-24T00:20:00;13.5;65
77700;DHT22;66867;42.658;23.320;2023-04-24T00:21:00;13.5;66
77700;DHT22;66867;42.658;23.320;2023-04-24T00:22:00;13.5;65
77700;DHT22;66867;42.658;23.320;2023-04-24T00:23:00;13.5;64
77700;DHT22;66867;42.658;23.320;2023-04-24T00:24:00;13.5;64
77700;DHT22;66867;42.658;23.320;2023-04-24T00:25:00;13.5;65
77700;DHT22;66867;42.658;23.320;2023-04-24T00:26:00;13.5;65
77700;DHT22;66867;42.658;23.320;2023-04-24T00:27:00;13.5;65
77700;DHT22;66867;42.658;23.320;2023-04-24T00:28:00;13.5;65
77700;DHT22;66867;42.658;23.320;2023-04-24T00:29:00;13.5;66
77700;DHT22;66867;42.658;23.320;2023-04-24T00:30:00;13.4;66
77700;DHT22;66867;42.658;23.320;2023-04-24T00:31:00;13.4;66
77700;DHT22;66867;42.658;23.320;2023-04-24T00:32:00;13.4;66
77700;DHT22;66867;42.658;23.320;2023-04-24T00:33:00;13.4;66
77700;DHT22;66867;42.658;23.320;2023-04-24T00:34:01;13.4;65
77700;DHT22;66867;42.658;23.320;2023-04-24T00:35:00;13.4;65
77700;DHT22;66867;42.658;23.320;2023-04-24T00:36:00;13.4;66
77700;DHT22;66867;42.658;23.320;2023-04-24T00:37:00;13.3;66
77700;DHT22;66867;42.658;23.320;2023-04-24T00:38:00;13.3;65
77700;DHT22;66867;42.658;23.320;2023-04-24T00:39:00;13.3;65
77700;DHT22;66867;42.658;23.320;2023-04-24T00:40:00;13.3;66
77700;DHT22;66867;42.658;23.320;2023-04-24T00:41:00;13.3;66
77700;DHT22;66867;42.658;23.320;2023-04-24T00:42:00;13.3;66
77700;DHT22;66867;42.658;23.320;2023-04-24T00:43:00;13.3;65
77700;DHT22;66867;42.658;23.320;2023-04-24T00:44:00;13.3;65
77700;DHT22;66867;42.658;23.320;2023-04-24T00:45:00;13.3;65
77700;DHT22;66867;42.658;23.320;2023-04-24T00:46:00;13.3;65
77700;DHT22;66867;42.658;23.320;2023-04-24T00:47:00;13.3;64
77700;DHT22;66867;42.658;23.320;2023-04-24T00:48:00;13.3;64
77700;DHT22;66867;42.658;23.320;2023-04-24T00:49:00;13.3;65
77700;DHT22;66867;42.658;23.320;2023-04-24T00:50:04;13.3;65
77700;DHT22;66867;42.658;23.320;2023-04-24T00:51:00;13.3;64
77700;DHT22;66867;42.658;23.320;2023-04-24T00:52:00;13.3;65
77700;DHT22;66867;42.658;23.320;2023-04-24T00:53:00;13.4;65
77700;DHT22;66867;42.658;23.320;2023-04-24T00:54:00;13.4;65
77700;DHT22;66867;42.658;23.320;2023-04-24T00:55:00;13.4;65
77700;DHT22;66867;42.658;23.320;2023-04-24T00:56:00;13.3;65
77700;DHT22;66867;42.658;23.320;2023-04-24T00:57:00;13.3;65
77700;DHT22;66867;42.658;23.320;2023-04-24T00:58:00;13.3;65
77700;DHT22;66867;42.658;23.320;2023-04-24T00:59:00;13.3;64
77700;DHT22;66867;42.658;23.320;2023-04-24T01:00:00;13.3;64
77700;DHT22;66867;42.658;23.320;2023-04-24T01:01:00;13.3;65
77700;DHT22;66867;42.658;23.320;2023-04-24T01:02:00;13.3;65
77700;DHT22;66867;42.658;23.320;2023-04-24T01:03:00;13.3;65
77700;DHT22;66867;42.658;23.320;2023-04-24T01:04:00;13.4;65
77700;DHT22;66867;42.658;23.320;2023-04-24T01:05:00;13.3;65
77700;DHT22;66867;42.658;23.320;2023-04-24T01:06:00;13.3;65
77700;DHT22;66867;42.658;23.320;2023-04-24T01:07:00;13.3;65
77700;DHT22;66867;42.658;23.320;2023-04-24T01:08:00;13.4;65
77700;DHT22;66867;42.658;23.320;2023-04-24T01:09:00;13.3;65
77700;DHT22;66867;42.658;23.320;2023-04-24T01:10:00;13.3;65
77700;DHT22;66867;42.658;23.320;2023-04-24T01:11:00;13.4;65
77700;DHT22;66867;42.658;23.320;2023-04-24T01:12:00;13.4;65
77700;DHT22;66867;42.658;23.320;2023-04-24T01:13:00;13.4;65
77700;DHT22;66867;42.658;23.320;2023-04-24T01:14:00;13.4;64
77700;DHT22;66867;42.658;23.320;2023-04-24T01:15:00;13.4;64
77700;DHT22;66867;42.658;23.320;2023-04-24T01:16:00;13.3;65
77700;DHT22;66867;42.658;23.320;2023-04-24T01:17:00;13.3;65
77700;DHT22;66867;42.658;23.320;2023-04-24T01:18:00;13.4;65
77700;DHT22;66867;42.658;23.320;2023-04-24T01:19:00;13.4;66
77700;DHT22;66867;42.658;23.320;2023-04-24T01:20:00;13.4;66
77700;DHT22;66867;42.658;23.320;2023-04-24T01:21:01;13.4;66
77700;DHT22;66867;42.658;23.320;2023-04-24T01:22:01;13.4;66
77700;DHT22;66867;42.658;23.320;2023-04-24T01:23:00;13.4;66
77700;DHT22;66867;42.658;23.320;2023-04-24T01:24:00;13.3;65
77700;DHT22;66867;42.658;23.320;2023-04-24T01:25:00;13.2;64
77700;DHT22;66867;42.658;23.320;2023-04-24T01:26:00;13.3;65
77700;DHT22;66867;42.658;23.320;2023-04-24T01:27:00;13.3;66
77700;DHT22;66867;42.658;23.320;2023-04-24T01:28:00;13.3;66
77700;DHT22;66867;42.658;23.320;2023-04-24T01:29:00;13.3;66
77700;DHT22;66867;42.658;23.320;2023-04-24T01:30:00;13.3;66
77700;DHT22;66867;42.658;23.320;2023-04-24T01:31:00;13.2;65
77700;DHT22;66867;42.658;23.320;2023-04-24T01:32:00;13.2;66
77700;DHT22;66867;42.658;23.320;2023-04-24T01:33:00;13.2;66
77700;DHT22;66867;42.658;23.320;2023-04-24T01:34:00;13.3;66
77700;DHT22;66867;42.658;23.320;2023-04-24T01:35:00;13.3;67
77700;DHT22;66867;42.658;23.320;2023-04-24T01:36:00;13.3;67
77700;DHT22;66867;42.658;23.320;2023-04-24T01:37:00;13.3;66
77700;DHT22;66867;42.658;23.320;2023-04-24T01:38:00;13.2;66
77700;DHT22;66867;42.658;23.320;2023-04-24T01:39:00;13.2;66
77700;DHT22;66867;42.658;23.320;2023-04-24T01:40:00;13.2;66
77700;DHT22;66867;42.658;23.320;2023-04-24T01:41:00;13.2;66
77700;DHT22;66867;42.658;23.320;2023-04-24T01:42:00;13.2;67
77700;DHT22;66867;42.658;23.320;2023-04-24T01:43:00;13.2;67
77700;DHT22;66867;42.658;23.320;2023-04-24T01:44:00;13.2;66
77700;DHT22;66867;42.658;23.320;2023-04-24T01:45:00;13.2;67
77700;DHT22;66867;42.658;23.320;2023-04-24T01:46:00;13.2;67
77700;DHT22;66867;42.658;23.320;2023-04-24T01:47:00;13.2;67
77700;DHT22;66867;42.658;23.320;2023-04-24T01:48:00;13.2;67
77700;DHT22;66867;42.658;23.320;2023-04-24T01:49:00;13.2;66
77700;DHT22;66867;42.658;23.320;2023-04-24T01:50:00;13.1;67
77700;DHT22;66867;42.658;23.320;2023-04-24T01:51:00;13.1;67
77700;DHT22;66867;42.658;23.320;2023-04-24T01:52:00;13.1;68
77700;DHT22;66867;42.658;23.320;2023-04-24T01:53:00;13.1;67
77700;DHT22;66867;42.658;23.320;2023-04-24T01:54:00;13.1;68
77700;DHT22;66867;42.658;23.320;2023-04-24T01:55:00;13.1;67
77700;DHT22;66867;42.658;23.320;2023-04-24T01:56:00;13.1;67
77700;DHT22;66867;42.658;23.320;2023-04-24T01:57:00;13.0;66
77700;DHT22;66867;42.658;23.320;2023-04-24T01:58:00;13.1;66
77700;DHT22;66867;42.658;23.320;2023-04-24T01:59:00;13.0;67
77700;DHT22;66867;42.658;23.320;2023-04-24T02:00:00;13.0;66
77700;DHT22;66867;42.658;23.320;2023-04-24T02:01:00;13.0;67
77700;DHT22;66867;42.658;23.320;2023-04-24T02:02:00;13.0;67
77700;DHT22;66867;42.658;23.320;2023-04-24T02:03:00;13.0;67
77700;DHT22;66867;42.658;23.320;2023-04-24T02:04:00;13.0;67
77700;DHT22;66867;42.658;23.320;2023-04-24T02:05:00;13.0;67
77700;DHT22;66867;42.658;23.320;2023-04-24T02:06:00;13.0;67
77700;DHT22;66867;42.658;23.320;2023-04-24T02:07:00;13.0;67
77700;DHT22;66867;42.658;23.320;2023-04-24T02:08:00;13.0;67
77700;DHT22;66867;42.658;23.320;2023-04-24T02:09:00;13.0;68
77700;DHT22;66867;42.658;23.320;2023-04-24T02:10:00;12.9;68
77700;DHT22;66867;42.658;23.320;2023-04-24T02:11:00;12.9;67
77700;DHT22;66867;42.658;23.320;2023-04-24T02:12:00;12.9;68
77700;DHT22;66867;42.658;23.320;2023-04-24T02:13:00;12.9;67
77700;DHT22;66867;42.658;23.320;2023-04-24T02:14:00;12.8;66
77700;DHT22;66867;42.658;23.320;2023-04-24T02:15:00;12.8;67
77700;DHT22;66867;42.658;23.320;2023-04-24T02:16:00;12.8;67
77700;DHT22;66867;42.658;23.320;2023-04-24T02:17:00;12.8;67
77700;DHT22;66867;42.658;23.320;2023-04-24T02:18:00;12.7;67
77700;DHT22;66867;42.658;23.320;2023-04-24T02:19:00;12.7;68
77700;DHT22;66867;42.658;23.320;2023-04-24T02:20:00;12.7;68
77700;DHT22;66867;42.658;23.320;2023-04-24T02:21:00;12.7;68
77700;DHT22;66867;42.658;23.320;2023-04-24T02:22:00;12.7;68
77700;DHT22;66867;42.658;23.320;2023-04-24T02:23:00;12.7;68
77700;DHT22;66867;42.658;23.320;2023-04-24T02:24:00;12.7;68
77700;DHT22;66867;42.658;23.320;2023-04-24T02:25:00;12.7;68
77700;DHT22;66867;42.658;23.320;2023-04-24T02:26:00;12.6;68
77700;DHT22;66867;42.658;23.320;2023-04-24T02:27:00;12.6;68
77700;DHT22;66867;42.658;23.320;2023-04-24T02:28:00;12.6;68
77700;DHT22;66867;42.658;23.320;2023-04-24T02:29:00;12.6;68
77700;DHT22;66867;42.658;23.320;2023-04-24T02:30:00;12.6;69
77700;DHT22;66867;42.658;23.320;2023-04-24T02:31:00;12.6;68
77700;DHT22;66867;42.658;23.320;2023-04-24T02:32:00;12.6;69
77700;DHT22;66867;42.658;23.320;2023-04-24T02:33:00;12.6;69
77700;DHT22;66867;42.658;23.320;2023-04-24T02:34:00;12.6;68
77700;DHT22;66867;42.658;23.320;2023-04-24T02:35:00;12.6;68
77700;DHT22;66867;42.658;23.320;2023-04-24T02:36:00;12.6;68
77700;DHT22;66867;42.658;23.320;2023-04-24T02:37:00;12.6;68
77700;DHT22;66867;42.658;23.320;2023-04-24T02:38:00;12.6;69
77700;DHT22;66867;42.658;23.320;2023-04-24T02:39:00;12.6;68
77700;DHT22;66867;42.658;23.320;2023-04-24T02:40:00;12.5;68
77700;DHT22;66867;42.658;23.320;2023-04-24T02:41:00;12.6;68
77700;DHT22;66867;42.658;23.320;2023-04-24T02:42:00;12.6;69
77700;DHT22;66867;42.658;23.320;2023-04-24T02:43:00;12.6;70
77700;DHT22;66867;42.658;23.320;2023-04-24T02:44:00;12.6;70
77700;DHT22;66867;42.658;23.320;2023-04-24T02:45:00;12.5;69
77700;DHT22;66867;42.658;23.320;2023-04-24T02:46:00;12.4;68
77700;DHT22;66867;42.658;23.320;2023-04-24T02:47:00;12.4;68
77700;DHT22;66867;42.658;23.320;2023-04-24T02:48:00;12.4;67
77700;DHT22;66867;42.658;23.320;2023-04-24T02:49:00;12.4;68
77700;DHT22;66867;42.658;23.320;2023-04-24T02:50:01;12.4;67
77700;DHT22;66867;42.658;23.320;2023-04-24T02:51:00;12.4;68
77700;DHT22;66867;42.658;23.320;2023-04-24T02:52:00;12.4;68
77700;DHT22;66867;42.658;23.320;2023-04-24T02:53:00;12.4;68
77700;DHT22;66867;42.658;23.320;2023-04-24T02:54:00;12.4;68
77700;DHT22;66867;42.658;23.320;2023-04-24T02:55:00;12.4;68
77700;DHT22;66867;42.658;23.320;2023-04-24T02:56:00;12.4;68
77700;DHT22;66867;42.658;23.320;2023-04-24T02:57:00;12.4;69
77700;DHT22;66867;42.658;23.320;2023-04-24T02:58:00;12.4;68
77700;DHT22;66867;42.658;23.320;2023-04-24T02:59:00;12.4;68
77700;DHT22;66867;42.658;23.320;2023-04-24T03:00:00;12.4;68
77700;DHT22;66867;42.658;23.320;2023-04-24T03:01:00;12.4;68
77700;DHT22;66867;42.658;23.320;2023-04-24T03:02:00;12.3;69
77700;DHT22;66867;42.658;23.320;2023-04-24T03:03:00;12.3;69
77700;DHT22;66867;42.658;23.320;2023-04-24T03:04:00;12.3;69
77700;DHT22;66867;42.658;23.320;2023-04-24T03:05:00;12.3;69
77700;DHT22;66867;42.658;23.320;2023-04-24T03:06:00;12.3;70
77700;DHT22;66867;42.658;23.320;2023-04-24T03:07:00;12.3;70
77700;DHT22;66867;42.658;23.320;2023-04-24T03:08:00;12.3;70
77700;DHT22;66867;42.658;23.320;2023-04-24T03:09:00;12.2;70
77700;DHT22;66867;42.658;23.320;2023-04-24T03:10:00;12.2;70
77700;DHT22;66867;42.658;23.320;2023-04-24T03:11:00;12.2;71
77700;DHT22;66867;42.658;23.320;2023-04-24T03:12:00;12.2;71
77700;DHT22;66867;42.658;23.320;2023-04-24T03:13:00;12.2;71
77700;DHT22;66867;42.658;23.320;2023-04-24T03:14:00;12.1;71
77700;DHT22;66867;42.658;23.320;2023-04-24T03:15:00;12.1;71
77700;DHT22;66867;42.658;23.320;2023-04-24T03:16:00;12.1;71
77700;DHT22;66867;42.658;23.320;2023-04-24T03:17:00;12.1;71
77700;DHT22;66867;42.658;23.320;2023-04-24T03:18:00;12.1;71
77700;DHT22;66867;42.658;23.320;2023-04-24T03:19:00;12.1;71
77700;DHT22;66867;42.658;23.320;2023-04-24T03:20:00;12.1;71
77700;DHT22;66867;42.658;23.320;2023-04-24T03:21:00;12.1;72
77700;DHT22;66867;42.658;23.320;2023-04-24T03:22:01;12.1;72
77700;DHT22;66867;42.658;23.320;2023-04-24T03:23:00;12.1;73
77700;DHT22;66867;42.658;23.320;2023-04-24T03:24:00;12.0;73
77700;DHT22;66867;42.658;23.320;2023-04-24T03:25:00;12.0;72
77700;DHT22;66867;42.658;23.320;2023-04-24T03:26:00;12.0;72
77700;DHT22;66867;42.658;23.320;2023-04-24T03:27:00;12.0;72
77700;DHT22;66867;42.658;23.320;2023-04-24T03:28:00;12.0;72
77700;DHT22;66867;42.658;23.320;2023-04-24T03:29:00;12.0;73
77700;DHT22;66867;42.658;23.320;2023-04-24T03:30:00;12.0;73
77700;DHT22;66867;42.658;23.320;2023-04-24T03:31:00;12.0;73
77700;DHT22;66867;42.658;23.320;2023-04-24T03:32:00;12.0;73
77700;DHT22;66867;42.658;23.320;2023-04-24T03:33:00;12.0;73
77700;DHT22;66867;42.658;23.320;2023-04-24T03:34:00;12.0;73
77700;DHT22;66867;42.658;23.320;2023-04-24T03:35:00;12.0;73
77700;DHT22;66867;42.658;23.320;2023-04-24T03:36:00;12.0;74
77700;DHT22;66867;42.658;23.320;2023-04-24T03:37:00;12.0;74
77700;DHT22;66867;42.658;23.320;2023-04-24T03:38:00;12.0;74
77700;DHT22;66867;42.658;23.320;2023-04-24T03:39:00;12.0;74
77700;DHT22;66867;42.658;23.320;2023-04-24T03:40:01;12.0;74
77700;DHT22;66867;42.658;23.320;2023-04-24T03:41:00;12.0;74
77700;DHT22;66867;42.658;23.320;2023-04-24T03:42:00;12.0;74
77700;DHT22;66867;42.658;23.320;2023-04-24T03:43:00;12.0;74
77700;DHT22;66867;42.658;23.320;2023-04-24T03:44:00;12.0;74
77700;DHT22;66867;42.658;23.320;2023-04-24T03:45:00;12.0;74
77700;DHT22;66867;42.658;23.320;2023-04-24T03:46:00;12.0;74
77700;DHT22;66867;42.658;23.320;2023-04-24T03:47:00;12.0;74
77700;DHT22;66867;42.658;23.320;2023-04-24T03:48:00;12.1;74
77700;DHT22;66867;42.658;23.320;2023-04-24T03:49:00;12.1;74
77700;DHT22;66867;42.658;23.320;2023-04-24T03:50:00;12.1;74
77700;DHT22;66867;42.658;23.320;2023-04-24T03:51:00;12.1;74
77700;DHT22;66867;42.658;23.320;2023-04-24T03:52:00;12.0;74
77700;DHT22;66867;42.658;23.320;2023-04-24T03:53:00;12.1;73
77700;DHT22;66867;42.658;23.320;2023-04-24T03:54:00;12.1;73
77700;DHT22;66867;42.658;23.320;2023-04-24T03:55:00;12.1;73
77700;DHT22;66867;42.658;23.320;2023-04-24T03:56:00;12.0;73
77700;DHT22;66867;42.658;23.320;2023-04-24T03:57:00;12.1;73
77700;DHT22;66867;42.658;23.320;2023-04-24T03:58:00;12.1;73
77700;DHT22;66867;42.658;23.320;2023-04-24T03:59:00;12.1;73
77700;DHT22;66867;42.658;23.320;2023-04-24T04:00:00;12.1;73
77700;DHT22;66867;42.658;23.320;2023-04-24T04:01:00;12.1;73
77700;DHT22;66867;42.658;23.320;2023-04-24T04:02:00;12.1;73
77700;DHT22;66867;42.658;23.320;2023-04-24T04:03:00;12.1;73
77700;DHT22;66867;42.658;23.320;2023-04-24T04:04:00;12.1;73
77700;DHT22;66867;42.658;23.320;2023-04-24T04:05:00;12.0;73
77700;DHT22;66867;42.658;23.320;2023-04-24T04:06:00;12.0;73
77700;DHT22;66867;42.658;23.320;2023-04-24T04:07:00;12.0;73
77700;DHT22;66867;42.658;23.320;2023-04-24T04:08:00;12.0;73
77700;DHT22;66867;42.658;23.320;2023-04-24T04:09:00;12.1;73
77700;DHT22;66867;42.658;23.320;2023-04-24T04:10:00;12.0;73
77700;DHT22;66867;42.658;23.320;2023-04-24T04:11:00;12.0;73
77700;DHT22;66867;42.658;23.320;2023-04-24T04:12:00;12.1;73
77700;DHT22;66867;42.658;23.320;2023-04-24T04:13:00;12.1;73
77700;DHT22;66867;42.658;23.320;2023-04-24T04:14:00;12.1;73
77700;DHT22;66867;42.658;23.320;2023-04-24T04:15:00;12.1;73
77700;DHT22;66867;42.658;23.320;2023-04-24T04:16:00;12.1;73
77700;DHT22;66867;42.658;23.320;2023-04-24T04:17:00;12.1;73
77700;DHT22;66867;42.658;23.320;2023-04-24T04:18:00;12.1;73
77700;DHT22;66867;42.658;23.320;2023-04-24T04:19:00;12.1;73
77700;DHT22;66867;42.658;23.320;2023-04-24T04:20:00;12.2;72
77700;DHT22;66867;42.658;23.320;2023-04-24T04:21:00;12.2;72
77700;DHT22;66867;42.658;23.320;2023-04-24T04:22:00;12.2;72
77700;DHT22;66867;42.658;23.320;2023-04-24T04:23:00;12.2;72
77700;DHT22;66867;42.658;23.320;2023-04-24T04:24:00;12.2;72
77700;DHT22;66867;42.658;23.320;2023-04-24T04:25:00;12.3;72
77700;DHT22;66867;42.658;23.320;2023-04-24T04:26:00;12.3;71
77700;DHT22;66867;42.658;23.320;2023-04-24T04:27:00;12.3;71
77700;DHT22;66867;42.658;23.320;2023-04-24T04:28:00;12.3;70
77700;DHT22;66867;42.658;23.320;2023-04-24T04:29:00;12.3;71
77700;DHT22;66867;42.658;23.320;2023-04-24T04:30:00;12.3;70
77700;DHT22;66867;42.658;23.320;2023-04-24T04:31:00;12.3;71
77700;DHT22;66867;42.658;23.320;2023-04-24T04:32:00;12.4;71
77700;DHT22;66867;42.658;23.320;2023-04-24T04:33:00;12.4;71
77700;DHT22;66867;42.658;23.320;2023-04-24T04:34:00;12.4;71
77700;DHT22;66867;42.658;23.320;2023-04-24T04:35:00;12.4;71
77700;DHT22;66867;42.658;23.320;2023-04-24T04:36:00;12.4;71
77700;DHT22;66867;42.658;23.320;2023-04-24T04:37:00;12.4;71
77700;DHT22;66867;42.658;23.320;2023-04-24T04:38:00;12.4;71
77700;DHT22;66867;42.658;23.320;2023-04-24T04:39:00;12.5;71
77700;DHT22;66867;42.658;23.320;2023-04-24T04:40:00;12.4;71
77700;DHT22;66867;42.658;23.320;2023-04-24T04:41:00;12.5;70
77700;DHT22;66867;42.658;23.320;2023-04-24T04:42:00;12.5;70
77700;DHT22;66867;42.658;23.320;2023-04-24T04:43:00;12.5;70
77700;DHT22;66867;42.658;23.320;2023-04-24T04:44:00;12.5;70
77700;DHT22;66867;42.658;23.320;2023-04-24T04:45:00;12.6;70
77700;DHT22;66867;42.658;23.320;2023-04-24T04:46:00;12.6;70
77700;DHT22;66867;42.658;23.320;2023-04-24T04:47:00;12.6;70
77700;DHT22;66867;42.658;23.320;2023-04-24T04:48:00;12.6;70
77700;DHT22;66867;42.658;23.320;2023-04-24T04:49:00;12.6;70
77700;DHT22;66867;42.658;23.320;2023-04-24T04:50:00;12.7;70
77700;DHT22;66867;42.658;23.320;2023-04-24T04:51:00;12.7;70
77700;DHT22;66867;42.658;23.320;2023-04-24T04:52:00;12.7;69
77700;DHT22;66867;42.658;23.320;2023-04-24T04:53:00;12.7;69
77700;DHT22;66867;42.658;23.320;2023-04-24T04:54:00;12.7;69
77700;DHT22;66867;42.658;23.320;2023-04-24T04:55:00;12.7;69
77700;DHT22;66867;42.658;23.320;2023-04-24T04:56:00;12.7;69
77700;DHT22;66867;42.658;23.320;2023-04-24T04:57:00;12.7;69
77700;DHT22;66867;42.658;23.320;2023-04-24T04:58:00;12.7;69
77700;DHT22;66867;42.658;23.320;2023-04-24T04:59:00;12.7;69
77700;DHT22;66867;42.658;23.320;2023-04-24T05:00:00;12.7;69
77700;DHT22;66867;42.658;23.320;2023-04-24T05:01:00;12.7;69
77700;DHT22;66867;42.658;23.320;2023-04-24T05:02:00;12.7;69
77700;DHT22;66867;42.658;23.320;2023-04-24T05:03:00;12.7;68
77700;DHT22;66867;42.658;23.320;2023-04-24T05:04:00;12.7;68
77700;DHT22;66867;42.658;23.320;2023-04-24T05:05:00;12.7;68
77700;DHT22;66867;42.658;23.320;2023-04-24T05:06:00;12.7;68
77700;DHT22;66867;42.658;23.320;2023-04-24T05:07:00;12.7;68
77700;DHT22;66867;42.658;23.320;2023-04-24T05:08:00;12.7;68
77700;DHT22;66867;42.658;23.320;2023-04-24T05:09:00;12.7;68
77700;DHT22;66867;42.658;23.320;2023-04-24T05:10:00;12.7;68
77700;DHT22;66867;42.658;23.320;2023-04-24T05:11:00;12.7;68
77700;DHT22;66867;42.658;23.320;2023-04-24T05:12:00;12.7;68
77700;DHT22;66867;42.658;23.320;2023-04-24T05:13:00;12.8;68
77700;DHT22;66867;42.658;23.320;2023-04-24T05:14:00;12.8;68
77700;DHT22;66867;42.658;23.320;2023-04-24T05:15:00;12.8;67
77700;DHT22;66867;42.658;23.320;2023-04-24T05:16:00;12.8;67
77700;DHT22;66867;42.658;23.320;2023-04-24T05:17:00;12.7;67
77700;DHT22;66867;42.658;23.320;2023-04-24T05:18:00;12.7;67
77700;DHT22;66867;42.658;23.320;2023-04-24T05:19:00;12.8;67
77700;DHT22;66867;42.658;23.320;2023-04-24T05:20:00;12.8;67
77700;DHT22;66867;42.658;23.320;2023-04-24T05:21:00;12.8;67
77700;DHT22;66867;42.658;23.320;2023-04-24T05:22:00;12.8;66
77700;DHT22;66867;42.658;23.320;2023-04-24T05:23:00;12.9;66
77700;DHT22;66867;42.658;23.320;2023-04-24T05:24:00;12.8;66
77700;DHT22;66867;42.658;23.320;2023-04-24T05:25:00;12.9;66
77700;DHT22;66867;42.658;23.320;2023-04-24T05:26:00;12.8;66
77700;DHT22;66867;42.658;23.320;2023-04-24T05:27:00;12.9;67
77700;DHT22;66867;42.658;23.320;2023-04-24T05:28:00;12.9;66
77700;DHT22;66867;42.658;23.320;2023-04-24T05:29:00;12.8;66
77700;DHT22;66867;42.658;23.320;2023-04-24T05:30:00;12.9;66
77700;DHT22;66867;42.658;23.320;2023-04-24T05:31:00;12.8;67
77700;DHT22;66867;42.658;23.320;2023-04-24T05:32:00;12.8;66
77700;DHT22;66867;42.658;23.320;2023-04-24T05:33:00;12.9;67
77700;DHT22;66867;42.658;23.320;2023-04-24T05:34:00;12.8;66
77700;DHT22;66867;42.658;23.320;2023-04-24T05:35:00;12.8;66
77700;DHT22;66867;42.658;23.320;2023-04-24T05:40:00;13.0;66
77700;DHT22;66867;42.658;23.320;2023-04-24T05:41:00;13.0;67
77700;DHT22;66867;42.658;23.320;2023-04-24T05:42:00;13.0;66
77700;DHT22;66867;42.658;23.320;2023-04-24T05:43:00;13.0;66
77700;DHT22;66867;42.658;23.320;2023-04-24T05:44:00;13.0;67
77700;DHT22;66867;42.658;23.320;2023-04-24T05:45:00;13.1;67
77700;DHT22;66867;42.658;23.320;2023-04-24T05:46:00;13.1;66
77700;DHT22;66867;42.658;23.320;2023-04-24T05:47:00;13.1;66
77700;DHT22;66867;42.658;23.320;2023-04-24T05:48:00;13.2;66
77700;DHT22;66867;42.658;23.320;2023-04-24T05:49:00;13.2;66
77700;DHT22;66867;42.658;23.320;2023-04-24T05:50:00;13.2;66
77700;DHT22;66867;42.658;23.320;2023-04-24T05:51:00;13.1;66
77700;DHT22;66867;42.658;23.320;2023-04-24T05:52:00;13.2;66
77700;DHT22;66867;42.658;23.320;2023-04-24T05:53:00;13.2;66
77700;DHT22;66867;42.658;23.320;2023-04-24T05:54:00;13.2;66
77700;DHT22;66867;42.658;23.320;2023-04-24T05:55:00;13.3;66
77700;DHT22;66867;42.658;23.320;2023-04-24T05:56:00;13.3;66
77700;DHT22;66867;42.658;23.320;2023-04-24T05:57:00;13.3;66
77700;DHT22;66867;42.658;23.320;2023-04-24T05:58:00;13.3;66
77700;DHT22;66867;42.658;23.320;2023-04-24T05:59:00;13.4;65
77700;DHT22;66867;42.658;23.320;2023-04-24T06:00:00;13.4;65
77700;DHT22;66867;42.658;23.320;2023-04-24T06:01:00;13.4;65
77700;DHT22;66867;42.658;23.320;2023-04-24T06:02:00;13.4;64
77700;DHT22;66867;42.658;23.320;2023-04-24T06:03:00;13.5;65
77700;DHT22;66867;42.658;23.320;2023-04-24T06:04:00;13.5;65
77700;DHT22;66867;42.658;23.320;2023-04-24T06:05:00;13.6;66
77700;DHT22;66867;42.658;23.320;2023-04-24T06:06:00;13.6;65
77700;DHT22;66867;42.658;23.320;2023-04-24T06:07:00;13.6;65
77700;DHT22;66867;42.658;23.320;2023-04-24T06:08:00;13.7;65
77700;DHT22;66867;42.658;23.320;2023-04-24T06:09:00;13.7;65
77700;DHT22;66867;42.658;23.320;2023-04-24T06:10:00;13.7;65
77700;DHT22;66867;42.658;23.320;2023-04-24T06:11:00;13.8;65
77700;DHT22;66867;42.658;23.320;2023-04-24T06:12:00;13.9;65
77700;DHT22;66867;42.658;23.320;2023-04-24T06:13:00;13.9;65
77700;DHT22;66867;42.658;23.320;2023-04-24T06:14:00;13.9;65
77700;DHT22;66867;42.658;23.320;2023-04-24T06:15:00;14.0;64
77700;DHT22;66867;42.658;23.320;2023-04-24T06:16:00;14.0;65
77700;DHT22;66867;42.658;23.320;2023-04-24T06:17:00;14.0;65
77700;DHT22;66867;42.658;23.320;2023-04-24T06:18:00;14.1;65
77700;DHT22;66867;42.658;23.320;2023-04-24T06:19:00;14.1;65
77700;DHT22;66867;42.658;23.320;2023-04-24T06:20:00;14.2;65
77700;DHT22;66867;42.658;23.320;2023-04-24T06:21:00;14.2;65
77700;DHT22;66867;42.658;23.320;2023-04-24T06:22:00;14.3;64
77700;DHT22;66867;42.658;23.320;2023-04-24T06:23:00;14.3;64
77700;DHT22;66867;42.658;23.320;2023-04-24T06:24:00;14.3;66
77700;DHT22;66867;42.658;23.320;2023-04-24T06:25:00;14.4;64
77700;DHT22;66867;42.658;23.320;2023-04-24T06:26:00;14.5;65
77700;DHT22;66867;42.658;23.320;2023-04-24T06:27:00;14.5;64
77700;DHT22;66867;42.658;23.320;2023-04-24T06:28:00;14.5;64
77700;DHT22;66867;42.658;23.320;2023-04-24T06:29:00;14.5;63
77700;DHT22;66867;42.658;23.320;2023-04-24T06:30:00;14.5;63
77700;DHT22;66867;42.658;23.320;2023-04-24T06:31:00;14.5;63
77700;DHT22;66867;42.658;23.320;2023-04-24T06:32:00;14.6;63
77700;DHT22;66867;42.658;23.320;2023-04-24T06:33:00;14.7;63
77700;DHT22;66867;42.658;23.320;2023-04-24T06:34:00;14.7;63
77700;DHT22;66867;42.658;23.320;2023-04-24T06:35:00;14.7;63
77700;DHT22;66867;42.658;23.320;2023-04-24T06:36:00;14.8;63
77700;DHT22;66867;42.658;23.320;2023-04-24T06:37:00;14.9;63
77700;DHT22;66867;42.658;23.320;2023-04-24T06:38:00;14.9;64
77700;DHT22;66867;42.658;23.320;2023-04-24T06:39:00;15.0;64
77700;DHT22;66867;42.658;23.320;2023-04-24T06:40:00;15.0;63
77700;DHT22;66867;42.658;23.320;2023-04-24T06:41:00;15.1;63